Time;durP1;ratioP1;P1;durP2;ratioP2;P2;SDS_P1;SDS_P2;PMS_P1;PMS_P2;Temp;Humidity;BMP_temperature;BMP_pressure;BME280_temperature;BME280_humidity;BME280_pressure;Samples;Min_cycle;Max_cycle;Signal;HPM_P1;HPM_P2
2023/09/28 00:01:36;;;;;;;0.57;0.50;;;;;;;17.38;61.84;100395.91;5346969;26;34159;-81
2023/09/28 00:04:06;;;;;;;1.42;1.37;;;;;;;17.61;60.55;100399.78;5363847;26;32791;-81
2023/09/28 00:06:34;;;;;;;1.65;0.45;;;;;;;17.45;61.22;100399.91;5345792;26;34647;-81
2023/09/28 00:09:03;;;;;;;0.82;0.82;;;;;;;17.30;61.93;100406.19;5326721;26;32916;-81
2023/09/28 00:11:30;;;;;;;1.10;1.00;;;;;;;17.51;60.68;100398.66;5345042;26;33588;-81
2023/09/28 00:13:58;;;;;;;0.65;0.52;;;;;;;17.53;60.58;100397.59;5363961;26;33981;-80
2023/09/28 00:16:26;;;;;;;0.35;0.35;;;;;;;17.32;61.62;100390.94;5345281;26;33054;-80
2023/09/28 00:18:55;;;;;;;1.87;1.17;;;;;;;17.27;61.94;100401.03;5344394;26;34133;-80
2023/09/28 00:21:23;;;;;;;8.60;1.55;;;;;;;17.36;61.39;100390.66;5362330;26;34955;-81
2023/09/28 00:23:52;;;;;;;0.68;0.62;;;;;;;17.43;61.14;100387.62;5363765;26;33929;-81
2023/09/28 00:26:22;;;;;;;0.55;0.55;;;;;;;17.22;61.52;100389.78;5345804;26;33885;-81
2023/09/28 00:28:50;;;;;;;0.52;0.52;;;;;;;17.38;60.89;100390.56;5345418;26;34779;-81
2023/09/28 00:31:19;;;;;;;0.32;0.32;;;;;;;17.34;61.04;100384.56;5344932;26;33540;-81
2023/09/28 00:33:47;;;;;;;1.08;0.70;;;;;;;17.28;61.53;100389.41;5345277;26;33238;-80
2023/09/28 00:36:15;;;;;;;1.90;0.95;;;;;;;17.34;61.07;100389.03;5345107;26;33911;-80
2023/09/28 00:38:43;;;;;;;2.65;1.98;;;;;;;17.59;59.98;100389.19;5344917;26;33131;-80
2023/09/28 00:41:12;;;;;;;0.52;0.52;;;;;;;17.36;60.89;100397.81;5363849;26;33795;-80
2023/09/28 00:43:41;;;;;;;2.03;1.85;;;;;;;17.28;61.22;100395.63;5344971;26;32904;-80
2023/09/28 00:46:11;;;;;;;0.20;0.20;;;;;;;17.11;61.70;100393.97;5384993;26;33637;-80
2023/09/28 00:48:58;;;;;;;0.90;0.90;;;;;;;17.27;60.96;100387.69;5349359;26;33924;-80
2023/09/28 00:51:26;;;;;;;1.40;1.30;;;;;;;17.26;61.09;100375.31;5348725;26;33115;-79
2023/09/28 00:53:55;;;;;;;0.73;0.73;;;;;;;17.33;60.94;100377.50;5348608;26;33161;-80
2023/09/28 00:56:24;;;;;;;5.95;1.48;;;;;;;17.13;61.60;100386.72;5348993;26;33087;-80
2023/09/28 00:58:54;;;;;;;1.23;0.57;;;;;;;17.14;61.64;100388.47;5367684;26;34641;-81
2023/09/28 01:01:29;;;;;;;0.57;0.50;;;;;;;17.06;61.55;100388.06;5348848;26;32345;-80
2023/09/28 01:04:00;;;;;;;1.55;1.45;;;;;;;17.13;61.50;100392.06;5367373;26;34799;-81
2023/09/28 01:06:30;;;;;;;1.08;0.82;;;;;;;17.10;61.63;100388.75;5367970;26;33521;-80
2023/09/28 01:08:58;;;;;;;0.65;0.62;;;;;;;17.37;60.83;100388.84;5387355;26;34248;-80
2023/09/28 01:11:28;;;;;;;1.77;1.02;;;;;;;17.34;60.61;100383.72;5367267;26;33360;-80
2023/09/28 01:13:56;;;;;;;0.45;0.45;;;;;;;17.66;59.78;100387.03;5367360;26;33697;-80
2023/09/28 01:16:26;;;;;;;0.20;0.20;;;;;;;17.31;60.97;100383.88;5366342;26;34791;-80
2023/09/28 01:18:54;;;;;;;1.27;1.10;;;;;;;17.47;60.22;100378.44;5348986;26;33910;-80
2023/09/28 01:21:24;;;;;;;0.75;0.75;;;;;;;17.28;60.76;100386.72;5367805;26;33745;-80
2023/09/28 01:23:52;;;;;;;0.77;0.73;;;;;;;17.15;61.60;100374.16;5349052;26;34704;-80
2023/09/28 01:26:20;;;;;;;0.95;0.80;;;;;;;17.28;60.99;100379.63;5347882;26;33852;-80
2023/09/28 01:28:48;;;;;;;0.60;0.57;;;;;;;17.43;60.56;100372.44;5348513;26;33668;-80
2023/09/28 01:31:16;;;;;;;1.15;1.10;;;;;;;17.54;60.10;100374.44;5368060;26;33441;-80
2023/09/28 01:33:43;;;;;;;0.95;0.95;;;;;;;17.40;60.52;100375.31;5387987;26;33902;-80
2023/09/28 01:36:11;;;;;;;0.55;0.55;;;;;;;17.25;60.62;100379.78;5368310;26;33536;-79
2023/09/28 01:38:41;;;;;;;1.50;0.65;;;;;;;17.06;61.22;100373.88;5349279;26;34434;-79
2023/09/28 01:41:11;;;;;;;1.33;1.23;;;;;;;17.04;61.39;100382.00;5350078;26;33289;-79
2023/09/28 01:43:39;;;;;;;4.20;1.85;;;;;;;16.91;62.06;100377.50;5368299;26;33628;-79
2023/09/28 01:46:07;;;;;;;2.53;0.95;;;;;;;16.92;62.31;100384.53;5345429;26;33296;-79
2023/09/28 01:48:35;;;;;;;2.60;1.23;;;;;;;17.01;61.73;100394.66;5345869;26;33825;-79
2023/09/28 01:51:03;;;;;;;1.17;1.12;;;;;;;16.81;62.46;100396.72;5327886;26;33066;-79
2023/09/28 01:53:32;;;;;;;1.30;0.82;;;;;;;16.91;62.07;100396.16;5327277;26;33771;-79
2023/09/28 01:56:01;;;;;;;0.73;0.65;;;;;;;16.76;62.34;100397.91;5345815;26;33988;-80
2023/09/28 01:58:30;;;;;;;1.08;0.98;;;;;;;16.85;62.07;100389.37;5328386;26;34271;-79
2023/09/28 02:00:57;;;;;;;1.00;0.70;;;;;;;16.79;62.12;100398.59;5345709;26;33567;-80
2023/09/28 02:03:25;;;;;;;0.25;0.25;;;;;;;16.72;62.58;100397.25;5345743;26;33565;-79
2023/09/28 02:05:53;;;;;;;0.40;0.40;;;;;;;16.79;62.04;100398.59;5327072;26;32800;-80
2023/09/28 02:08:20;;;;;;;1.42;1.33;;;;;;;17.11;60.93;100401.12;5346011;26;33921;-79
2023/09/28 02:10:50;;;;;;;0.60;0.60;;;;;;;16.74;62.17;100394.50;5309344;26;32704;-79
2023/09/28 02:13:19;;;;;;;0.65;0.65;;;;;;;16.59;62.94;100391.75;5344858;26;33163;-80
2023/09/28 02:15:47;;;;;;;4.72;0.95;;;;;;;16.71;62.18;100390.19;5327526;26;33262;-79
2023/09/28 02:18:14;;;;;;;0.50;0.50;;;;;;;16.61;62.71;100389.00;5345837;26;34726;-80
2023/09/28 02:20:44;;;;;;;0.30;0.25;;;;;;;16.80;61.93;100388.78;5345437;26;34558;-80
2023/09/28 02:23:12;;;;;;;0.80;0.22;;;;;;;16.75;61.55;100386.37;5346200;26;33846;-79
2023/09/28 02:25:39;;;;;;;2.22;0.52;;;;;;;16.98;61.16;100389.50;5345901;26;33843;-79
2023/09/28 02:28:07;;;;;;;0.40;0.40;;;;;;;16.85;61.20;100390.25;5326933;26;34290;-79
2023/09/28 02:30:35;;;;;;;0.15;0.10;;;;;;;16.73;61.72;100398.12;5327132;26;33906;-79
2023/09/28 02:33:02;;;;;;;0.85;0.70;;;;;;;17.03;60.91;100393.59;5365588;26;34145;-79
2023/09/28 02:35:30;;;;;;;1.27;1.17;;;;;;;16.65;62.06;100410.03;5327322;26;34133;-80
2023/09/28 02:37:57;;;;;;;1.77;0.70;;;;;;;16.53;62.50;100400.13;5327275;26;33874;-80
2023/09/28 02:40:25;;;;;;;1.48;1.33;;;;;;;16.44;63.00;100398.00;5345242;26;33955;-79
2023/09/28 02:42:53;;;;;;;0.90;0.82;;;;;;;16.46;63.02;100393.41;5345476;26;34544;-79
2023/09/28 02:45:21;;;;;;;5.10;0.62;;;;;;;16.38;62.98;100403.69;5338988;26;33089;-81
2023/09/28 02:47:48;;;;;;;1.27;0.93;;;;;;;16.43;63.00;100398.94;5330880;26;34442;-80
2023/09/28 02:50:18;;;;;;;0.80;0.77;;;;;;;16.38;63.14;100388.56;5348550;26;33577;-81
2023/09/28 02:52:46;;;;;;;0.55;0.55;;;;;;;16.55;62.54;100395.53;5350228;26;34456;-80
2023/09/28 02:55:17;;;;;;;4.20;1.75;;;;;;;16.60;62.08;100393.47;5349553;26;34151;-80
2023/09/28 02:57:47;;;;;;;1.53;0.97;;;;;;;16.45;62.72;100391.72;5349652;26;34289;-80
2023/09/28 03:02:45;;;;;;;0.70;0.70;;;;;;;16.60;61.41;100390.78;5368524;26;33991;-81
2023/09/28 03:05:16;;;;;;;1.50;1.17;;;;;;;16.83;60.90;100393.94;5367612;26;33563;-80
2023/09/28 03:07:45;;;;;;;1.58;0.75;;;;;;;16.48;62.25;100396.87;5368130;26;34120;-80
2023/09/28 03:10:13;;;;;;;3.72;1.75;;;;;;;16.37;62.74;100396.63;5368146;26;33979;-80
2023/09/28 03:12:44;;;;;;;0.65;0.65;;;;;;;16.33;62.99;100387.97;5349056;26;33678;-80
2023/09/28 03:15:12;;;;;;;1.45;1.35;;;;;;;16.26;63.46;100388.41;5367983;26;33090;-80
2023/09/28 03:17:41;;;;;;;1.15;0.70;;;;;;;16.34;62.88;100391.50;5368088;26;33908;-80
2023/09/28 03:20:17;;;;;;;0.82;0.75;;;;;;;16.34;63.02;100386.16;5368191;26;33228;-80
2023/09/28 03:22:49;;;;;;;0.20;0.20;;;;;;;16.35;63.02;100390.53;5350815;26;34730;-81
2023/09/28 03:25:18;;;;;;;1.12;1.08;;;;;;;16.36;62.95;100397.56;5350011;26;34480;-80
2023/09/28 03:27:54;;;;;;;2.10;0.95;;;;;;;16.34;62.97;100402.16;5331275;26;33670;-81
2023/09/28 03:30:25;;;;;;;0.65;0.65;;;;;;;16.37;62.76;100401.94;5348939;26;33647;-79
2023/09/28 03:32:53;;;;;;;1.12;0.68;;;;;;;16.35;62.52;100403.84;5349289;26;33933;-79
2023/09/28 03:35:21;;;;;;;1.55;0.70;;;;;;;16.46;62.33;100411.22;5349309;26;33356;-80
2023/09/28 03:37:53;;;;;;;1.40;1.30;;;;;;;16.55;62.07;100410.69;5367892;26;33779;-80
2023/09/28 03:40:21;;;;;;;0.45;0.37;;;;;;;16.28;62.56;100414.00;5349820;26;34168;-80
2023/09/28 03:42:49;;;;;;;10.45;0.70;;;;;;;16.31;62.49;100411.16;5387864;26;33266;-80
2023/09/28 03:45:20;;;;;;;0.85;0.73;;;;;;;16.24;63.04;100423.13;5367817;26;34052;-80
2023/09/28 03:47:50;;;;;;;0.68;0.68;;;;;;;16.32;62.63;100420.00;5368539;26;35000;-80
2023/09/28 03:50:20;;;;;;;0.60;0.60;;;;;;;16.21;63.16;100428.62;5349270;26;34310;-80
2023/09/28 03:52:49;;;;;;;1.10;0.75;;;;;;;16.13;63.53;100428.19;5349306;26;33500;-80
2023/09/28 03:55:19;;;;;;;0.93;0.47;;;;;;;16.13;63.73;100425.53;5367961;26;34485;-80
2023/09/28 03:57:47;;;;;;;1.55;1.45;;;;;;;16.24;63.02;100430.28;5331160;26;32968;-79
2023/09/28 04:00:16;;;;;;;0.73;0.73;;;;;;;16.34;62.62;100419.00;5348841;26;33438;-78
2023/09/28 04:02:45;;;;;;;2.58;1.83;;;;;;;16.20;62.84;100420.75;5349041;26;33921;-80
2023/09/28 04:05:17;;;;;;;1.12;1.02;;;;;;;16.22;62.79;100427.69;5350744;26;34009;-79
2023/09/28 04:07:46;;;;;;;0.47;0.40;;;;;;;16.22;62.85;100424.16;5349296;26;33466;-79
2023/09/28 04:10:14;;;;;;;0.40;0.30;;;;;;;16.31;62.72;100423.63;5348922;26;33131;-79
2023/09/28 04:12:42;;;;;;;0.55;0.55;;;;;;;16.24;62.96;100427.63;5349978;26;34810;-79
2023/09/28 04:15:10;;;;;;;0.47;0.47;;;;;;;16.35;62.23;100418.03;5367756;26;34003;-80
2023/09/28 04:17:38;;;;;;;1.58;1.35;;;;;;;16.14;63.17;100416.59;5330252;26;34171;-80
2023/09/28 04:20:11;;;;;;;2.10;0.80;;;;;;;16.21;63.02;100427.78;5368749;26;34409;-78
2023/09/28 04:22:39;;;;;;;2.17;1.67;;;;;;;16.17;63.00;100423.56;5349086;26;32954;-79
2023/09/28 04:25:07;;;;;;;1.23;1.08;;;;;;;16.47;61.61;100423.59;5348350;26;33484;-79
2023/09/28 04:27:35;;;;;;;1.12;1.05;;;;;;;16.12;62.59;100421.16;5349092;26;34145;-79
2023/09/28 04:30:06;;;;;;;0.32;0.32;;;;;;;15.98;63.33;100431.72;5367360;26;34067;-79
2023/09/28 04:32:35;;;;;;;0.95;0.43;;;;;;;16.03;63.24;100430.53;5366782;26;33689;-79
2023/09/28 04:35:06;;;;;;;0.73;0.73;;;;;;;15.93;63.62;100428.47;5366601;26;33260;-80
2023/09/28 04:37:34;;;;;;;0.95;0.50;;;;;;;16.05;63.10;100428.66;5348754;26;33164;-79
2023/09/28 04:40:01;;;;;;;1.33;0.90;;;;;;;16.18;62.94;100428.78;5367307;26;33246;-79
2023/09/28 04:42:29;;;;;;;1.80;1.70;;;;;;;15.96;63.57;100438.97;5330181;26;33388;-79
2023/09/28 04:44:57;;;;;;;1.83;0.73;;;;;;;15.85;63.84;100434.22;5363511;26;34017;-79
2023/09/28 04:47:25;;;;;;;1.17;0.90;;;;;;;16.31;62.03;100435.16;5344825;26;33517;-79
2023/09/28 04:49:54;;;;;;;0.75;0.75;;;;;;;16.24;62.10;100446.25;5364779;26;34433;-79
2023/09/28 04:52:22;;;;;;;0.73;0.73;;;;;;;16.03;63.08;100435.84;5363255;26;33145;-79
2023/09/28 04:54:52;;;;;;;0.32;0.32;;;;;;;16.06;63.40;100450.81;5344436;26;34609;-80
2023/09/28 04:57:20;;;;;;;2.08;1.27;;;;;;;15.98;63.51;100448.56;5344765;26;33015;-79
2023/09/28 04:59:47;;;;;;;1.42;1.33;;;;;;;15.92;63.80;100448.94;5364711;26;34108;-80
2023/09/28 05:02:15;;;;;;;1.45;1.27;;;;;;;16.03;63.55;100451.84;5345132;26;33949;-80
2023/09/28 05:04:45;;;;;;;0.73;0.73;;;;;;;15.98;63.66;100443.25;5345006;26;33091;-80
2023/09/28 05:07:13;;;;;;;0.55;0.40;;;;;;;16.05;63.55;100449.09;5346177;26;33963;-80
2023/09/28 05:09:42;;;;;;;1.40;1.30;;;;;;;16.13;63.46;100453.03;5364237;26;33365;-79
2023/09/28 05:12:10;;;;;;;0.70;0.60;;;;;;;16.09;63.66;100456.84;5345695;26;33544;-79
2023/09/28 05:14:37;;;;;;;2.50;0.93;;;;;;;15.99;64.00;100455.62;5326778;26;33033;-80
2023/09/28 05:17:06;;;;;;;0.55;0.55;;;;;;;16.10;63.56;100461.22;5327965;26;33802;-79
2023/09/28 05:19:34;;;;;;;0.80;0.75;;;;;;;16.19;63.57;100453.63;5365493;26;33735;-79
2023/09/28 05:22:01;;;;;;;0.77;0.77;;;;;;;16.24;63.29;100456.94;5344457;26;34315;-79
2023/09/28 05:24:30;;;;;;;1.10;1.02;;;;;;;16.19;63.41;100462.50;5327538;26;33894;-79
2023/09/28 05:26:57;;;;;;;2.50;0.95;;;;;;;16.27;63.51;100460.25;5345713;26;34879;-77
2023/09/28 05:29:27;;;;;;;2.35;1.33;;;;;;;16.47;63.21;100464.44;5345366;26;32240;-77
2023/09/28 05:31:54;;;;;;;2.15;1.55;;;;;;;16.38;63.28;100467.66;5364603;26;33615;-78
2023/09/28 05:34:22;;;;;;;1.37;0.60;;;;;;;16.46;63.42;100470.72;5363659;26;33981;-78
2023/09/28 05:36:50;;;;;;;2.45;1.42;;;;;;;16.45;63.57;100469.00;5326984;26;33211;-78
2023/09/28 05:39:19;;;;;;;1.77;0.52;;;;;;;16.73;62.42;100462.12;5364153;26;33665;-78
2023/09/28 05:41:46;;;;;;;0.65;0.65;;;;;;;16.72;62.71;100471.06;5363974;26;34616;-78
2023/09/28 05:44:14;;;;;;;1.73;1.40;;;;;;;16.77;62.54;100463.66;5365726;26;34656;-78
2023/09/28 05:46:43;;;;;;;0.55;0.55;;;;;;;16.75;62.92;100460.19;5367608;26;33120;-78
2023/09/28 05:49:11;;;;;;;0.95;0.93;;;;;;;16.65;63.56;100465.19;5387469;26;33386;-78
2023/09/28 05:51:39;;;;;;;2.47;2.10;;;;;;;16.93;63.00;100467.13;5368132;26;32871;-77
2023/09/28 05:54:07;;;;;;;0.75;0.75;;;;;;;17.24;62.37;100462.62;5330361;26;33835;-78
2023/09/28 05:56:34;;;;;;;1.17;0.77;;;;;;;16.93;63.46;100458.25;5367874;26;34517;-78
2023/09/28 05:59:02;;;;;;;1.35;0.50;;;;;;;16.86;63.94;100461.31;5348608;26;32802;-77
2023/09/28 06:01:30;;;;;;;3.03;1.58;;;;;;;16.94;63.92;100468.84;5368028;26;33659;-78
2023/09/28 06:03:58;;;;;;;0.55;0.55;;;;;;;17.02;64.02;100473.72;5349055;26;33001;-78
2023/09/28 06:06:25;;;;;;;2.45;0.80;;;;;;;17.05;64.09;100468.22;5368209;26;33581;-77
2023/09/28 06:08:53;;;;;;;2.08;1.87;;;;;;;17.11;64.14;100479.38;5330405;26;32718;-78
2023/09/28 06:11:22;;;;;;;1.77;1.33;;;;;;;17.14;64.21;100479.19;5368059;26;33951;-77
2023/09/28 06:13:50;;;;;;;2.37;2.03;;;;;;;17.18;64.05;100479.84;5368164;26;34654;-78
2023/09/28 06:16:21;;;;;;;1.98;1.33;;;;;;;17.58;63.42;100482.78;5368042;26;33832;-78
2023/09/28 06:18:48;;;;;;;1.52;0.70;;;;;;;17.40;64.08;100479.41;5368314;26;34453;-78
2023/09/28 06:21:16;;;;;;;2.10;1.87;;;;;;;17.41;64.32;100481.97;5367405;26;34739;-78
2023/09/28 06:23:43;;;;;;;0.22;0.22;;;;;;;17.50;64.36;100480.56;5367504;26;33652;-78
2023/09/28 06:26:12;;;;;;;1.87;1.08;;;;;;;17.56;64.53;100480.16;5349398;26;33004;-78
2023/09/28 06:28:52;;;;;;;1.35;1.25;;;;;;;17.71;64.13;100477.50;5353930;26;33567;-78
2023/09/28 06:31:21;;;;;;;2.00;1.25;;;;;;;17.80;64.15;100479.62;5387207;26;34928;-78
2023/09/28 06:33:48;;;;;;;0.77;0.57;;;;;;;17.90;63.74;100476.31;5348199;26;33491;-78
2023/09/28 06:36:18;;;;;;;1.73;1.00;;;;;;;18.22;62.91;100483.19;5348995;26;33983;-78
2023/09/28 06:39:05;;;;;;;1.60;1.12;;;;;;;18.79;61.42;100480.38;5355710;26;33661;-78
2023/09/28 06:41:32;;;;;;;1.00;0.95;;;;;;;18.85;61.83;100483.50;5349062;26;33891;-78
2023/09/28 06:44:00;;;;;;;2.67;1.67;;;;;;;18.98;60.61;100477.31;5367118;26;34042;-78
2023/09/28 06:46:28;;;;;;;8.13;2.05;;;;;;;19.11;58.67;100479.03;5349160;26;34205;-78
2023/09/28 06:48:56;;;;;;;30.15;2.40;;;;;;;19.42;58.22;100472.44;5330193;26;32703;-78
2023/09/28 06:51:25;;;;;;;0.75;0.68;;;;;;;19.33;57.44;100482.94;5367672;26;33971;-78
2023/09/28 06:53:54;;;;;;;1.90;1.77;;;;;;;19.36;57.11;100483.56;5368070;26;33946;-79
2023/09/28 06:56:22;;;;;;;1.12;0.80;;;;;;;19.64;56.75;100490.56;5367924;26;34872;-78
2023/09/28 06:58:53;;;;;;;0.93;0.93;;;;;;;19.56;56.51;100484.87;5388402;26;33015;-79
2023/09/28 07:01:22;;;;;;;;;;;;;;;19.83;55.51;100478.53;5368869;26;33658;-78
2023/09/28 07:03:52;;;;;;;2.00;1.70;;;;;;;19.96;56.01;100479.38;5331408;26;33533;-78
2023/09/28 07:06:24;;;;;;;2.15;0.65;;;;;;;20.29;55.45;100473.38;5387590;26;33923;-79
2023/09/28 07:08:53;;;;;;;;;;;;;;;20.36;53.93;100482.69;5350378;26;33296;-78
2023/09/28 07:11:26;;;;;;;3.05;1.87;;;;;;;20.26;53.46;100483.47;5367782;26;33956;-78
2023/09/28 07:13:54;;;;;;;0.57;0.45;;;;;;;20.69;52.93;100484.72;5367744;26;33661;-78
2023/09/28 07:16:21;;;;;;;1.17;0.93;;;;;;;20.71;53.04;100488.16;5367814;26;33770;-78
2023/09/28 07:18:49;;;;;;;0.60;0.60;;;;;;;21.02;51.73;100488.50;5349425;26;33525;-78
2023/09/28 07:21:17;;;;;;;0.52;0.52;;;;;;;21.02;52.12;100496.56;5348753;26;34022;-78
2023/09/28 07:23:45;;;;;;;1.08;1.02;;;;;;;21.01;52.03;100497.53;5368013;26;34050;-78
2023/09/28 07:26:16;;;;;;;1.92;0.93;;;;;;;21.04;51.19;100502.69;5348872;26;33868;-78
2023/09/28 07:28:44;;;;;;;1.95;1.75;;;;;;;21.12;51.29;100499.41;5348345;26;34316;-78
2023/09/28 07:31:15;;;;;;;0.30;0.30;;;;;;;21.26;50.29;100495.66;5348315;26;33043;-78
2023/09/28 07:33:45;;;;;;;1.15;1.12;;;;;;;21.58;50.19;100495.88;5367923;26;34055;-78
2023/09/28 07:36:13;;;;;;;3.05;1.62;;;;;;;21.88;48.83;100503.34;5349043;26;34056;-78
2023/09/28 07:38:40;;;;;;;2.22;1.70;;;;;;;22.17;48.86;100499.22;5367623;26;33285;-78
2023/09/28 07:41:08;;;;;;;1.98;0.70;;;;;;;21.83;48.94;100500.16;5367607;26;33668;-79
2023/09/28 07:43:37;;;;;;;1.25;0.80;;;;;;;22.09;47.99;100496.25;5367955;26;33624;-78
2023/09/28 07:46:06;;;;;;;3.53;0.73;;;;;;;22.27;47.97;100498.47;5363925;26;33734;-78
2023/09/28 07:48:34;;;;;;;1.17;1.08;;;;;;;22.05;48.67;100505.53;5364163;26;34418;-78
2023/09/28 07:51:02;;;;;;;3.03;1.58;;;;;;;22.65;47.05;100504.25;5345315;26;34313;-78
2023/09/28 07:53:30;;;;;;;4.43;1.37;;;;;;;22.56;45.89;100504.16;5365103;26;33702;-78
2023/09/28 07:55:58;;;;;;;3.45;0.88;;;;;;;22.29;47.04;100501.87;5363725;26;34850;-78
2023/09/28 07:58:26;;;;;;;2.80;1.70;;;;;;;22.36;46.93;100500.38;5345428;26;32724;-79
2023/09/28 08:00:56;;;;;;;0.70;0.70;;;;;;;22.51;46.11;100504.53;5345204;26;32668;-78
2023/09/28 08:03:24;;;;;;;1.17;0.90;;;;;;;22.45;46.12;100502.31;5363730;26;33515;-78
2023/09/28 08:05:54;;;;;;;0.45;0.45;;;;;;;22.54;46.34;100506.94;5345075;26;34660;-78
2023/09/28 08:08:23;;;;;;;1.25;0.45;;;;;;;22.57;46.18;100506.69;5364121;26;33693;-78
2023/09/28 08:10:51;;;;;;;0.70;0.70;;;;;;;22.82;45.74;100508.19;5363906;26;33542;-78
2023/09/28 08:13:19;;;;;;;4.12;1.37;;;;;;;23.34;44.77;100502.97;5345363;26;33543;-78
2023/09/28 08:15:47;;;;;;;7.55;1.25;;;;;;;23.41;43.95;100502.31;5344775;26;33217;-78
2023/09/28 08:18:15;;;;;;;1.23;0.90;;;;;;;23.50;44.09;100500.66;5363829;26;34443;-78
2023/09/28 08:20:44;;;;;;;1.25;1.15;;;;;;;23.30;44.60;100504.19;5326612;26;34229;-79
2023/09/28 08:23:32;;;;;;;1.23;0.95;;;;;;;23.51;44.02;100497.84;5363608;26;34360;-78
2023/09/28 08:26:00;;;;;;;1.27;1.17;;;;;;;23.47;43.62;100507.16;5363560;26;34827;-78
2023/09/28 08:28:29;;;;;;;0.65;0.65;;;;;;;23.09;44.08;100505.06;5345472;26;32191;-78
2023/09/28 08:31:02;;;;;;;0.88;0.88;;;;;;;23.39;44.39;100498.03;5326706;26;32499;-79
2023/09/28 08:33:30;;;;;;;0.55;0.55;;;;;;;23.57;43.71;100501.81;5363404;26;34379;-78
2023/09/28 08:35:58;;;;;;;4.28;1.55;;;;;;;23.65;43.21;100510.16;5344672;26;34438;-79
2023/09/28 08:38:26;;;;;;;4.22;1.35;;;;;;;23.92;43.15;100500.59;5344919;26;33302;-78
2023/09/28 08:41:02;;;;;;;1.17;0.95;;;;;;;23.82;44.04;100494.31;5364100;26;33519;-78
2023/09/28 08:43:34;;;;;;;1.58;0.77;;;;;;;24.16;42.88;100492.16;5364891;26;34903;-78
2023/09/28 08:46:02;;;;;;;0.90;0.90;;;;;;;24.18;43.11;100492.91;5326761;26;32317;-79
2023/09/28 08:48:30;;;;;;;0.68;0.50;;;;;;;24.10;42.90;100498.97;5327561;26;32587;-78
2023/09/28 08:51:07;;;;;;;4.20;1.92;;;;;;;23.59;44.10;100497.13;5327479;26;33803;-78
2023/09/28 08:53:37;;;;;;;2.28;1.37;;;;;;;23.93;43.34;100492.38;5366119;26;33987;-78
2023/09/28 08:56:05;;;;;;;1.00;0.88;;;;;;;24.38;42.75;100488.44;5327003;26;34858;-78
2023/09/28 08:58:34;;;;;;;4.72;2.03;;;;;;;24.88;41.53;100481.09;5327792;26;33360;-79
2023/09/28 09:01:04;;;;;;;1.58;1.48;;;;;;;24.77;41.30;100482.06;5308380;26;32625;-78
2023/09/28 09:03:35;;;;;;;1.35;1.25;;;;;;;24.90;40.99;100480.94;5327794;26;33469;-78
2023/09/28 09:06:06;;;;;;;1.65;1.25;;;;;;;25.05;40.66;100487.59;5346610;26;34180;-79
2023/09/28 09:08:38;;;;;;;2.10;1.83;;;;;;;24.68;41.15;100482.91;5346443;26;33577;-79
2023/09/28 09:11:08;;;;;;;1.83;1.73;;;;;;;25.13;41.19;100476.12;5328907;26;34724;-78
2023/09/28 09:13:50;;;;;;;3.47;1.67;;;;;;;24.74;41.31;100481.53;5346050;26;33582;-79
2023/09/28 09:16:27;;;;;;;3.75;1.55;;;;;;;24.97;41.05;100484.75;5346643;26;33939;-79
2023/09/28 09:18:58;;;;;;;1.37;0.75;;;;;;;25.52;40.60;100476.88;5327387;26;33606;-78
2023/09/28 09:21:27;;;;;;;;;;;;;;;25.39;40.73;100470.94;5346495;26;33252;-79
2023/09/28 09:24:14;;;;;;;1.20;1.10;;;;;;;25.50;40.77;100474.34;5327341;26;33260;-78
2023/09/28 09:26:47;;;;;;;3.58;1.90;;;;;;;25.68;40.08;100470.84;5345830;26;34162;-79
2023/09/28 09:29:15;;;;;;;;;;;;;;;26.04;39.13;100464.59;5346231;26;33738;-78
2023/09/28 09:31:45;;;;;;;2.22;1.60;;;;;;;26.05;39.66;100465.44;5327473;26;33202;-79
2023/09/28 09:34:17;;;;;;;6.53;2.12;;;;;;;26.16;40.13;100470.69;5327758;26;33974;-79
2023/09/28 09:36:58;;;;;;;1.73;0.93;;;;;;;26.13;39.80;100470.97;5345673;26;34190;-79
2023/09/28 09:39:29;;;;;;;1.75;1.30;;;;;;;26.00;40.31;100465.06;5345992;26;34419;-79
2023/09/28 09:41:58;;;;;;;6.10;2.17;;;;;;;26.35;40.78;100467.00;5328056;26;33512;-79
2023/09/28 09:44:26;;;;;;;1.27;1.17;;;;;;;26.48;38.83;100470.19;5331359;26;33982;-79
2023/09/28 09:46:55;;;;;;;0.70;0.70;;;;;;;26.60;39.22;100462.72;5368576;26;35113;-79
2023/09/28 09:49:24;;;;;;;1.02;1.02;;;;;;;26.35;39.30;100464.28;5331239;26;32751;-78
2023/09/28 09:51:53;;;;;;;10.82;2.67;;;;;;;26.13;38.62;100462.84;5367740;26;33826;-79
2023/09/28 09:54:21;;;;;;;3.35;2.12;;;;;;;25.80;39.92;100464.28;5330654;26;33970;-79
2023/09/28 09:56:50;;;;;;;1.65;1.10;;;;;;;26.16;39.32;100458.97;5368107;26;35069;-79
2023/09/28 09:59:22;;;;;;;1.73;1.42;;;;;;;26.68;39.12;100470.94;5368400;26;33407;-79
2023/09/28 10:01:50;;;;;;;;;;;;;;;26.75;40.27;100466.56;5349952;26;34677;-79
2023/09/28 10:04:19;;;;;;;1.58;1.48;;;;;;;26.59;38.41;100471.84;5350016;26;33974;-80
2023/09/28 10:06:56;;;;;;;1.45;0.68;;;;;;;26.87;37.68;100459.06;5368215;26;34214;-80
2023/09/28 10:09:24;;;;;;;1.62;1.52;;;;;;;27.17;37.30;100459.69;5350805;26;34288;-79
2023/09/28 10:11:56;;;;;;;2.37;1.80;;;;;;;27.03;37.69;100458.34;5388383;26;33513;-79
2023/09/28 10:14:25;;;;;;;2.75;1.75;;;;;;;26.91;37.48;100459.59;5368057;26;34721;-80
2023/09/28 10:16:53;;;;;;;1.60;1.50;;;;;;;27.10;37.96;100453.16;5368305;26;34226;-80
2023/09/28 10:19:24;;;;;;;0.88;0.88;;;;;;;27.29;37.48;100453.81;5349637;26;33622;-79
2023/09/28 10:21:55;;;;;;;2.28;1.95;;;;;;;27.31;37.37;100451.81;5368821;26;34397;-79
2023/09/28 10:24:31;;;;;;;1.37;1.23;;;;;;;27.78;36.38;100448.72;5368216;26;33799;-79
2023/09/28 10:27:08;;;;;;;1.23;1.10;;;;;;;27.98;36.57;100448.47;5348897;26;34117;-79
2023/09/28 10:29:36;;;;;;;1.40;1.30;;;;;;;28.26;36.29;100444.47;5387439;26;34047;-79
2023/09/28 10:32:29;;;;;;;1.55;0.70;;;;;;;28.29;36.25;100446.00;5349255;26;33164;-80
2023/09/28 10:35:16;;;;;;;1.10;1.08;;;;;;;28.32;35.82;100441.09;5368120;26;33604;-79
2023/09/28 10:38:22;;;;;;;3.70;1.05;;;;;;;28.27;35.05;100439.91;5388159;26;34445;-79
2023/09/28 10:40:56;;;;;;;2.22;1.10;;;;;;;28.01;35.78;100448.13;5348616;26;33107;-79
2023/09/28 10:43:29;;;;;;;1.37;1.27;;;;;;;28.26;35.87;100447.19;5349076;26;32992;-79
2023/09/28 10:46:01;;;;;;;5.12;1.67;;;;;;;28.62;35.32;100446.09;5367296;26;34806;-79
2023/09/28 10:48:40;;;;;;;1.85;0.85;;;;;;;28.53;34.87;100435.25;5349119;26;33097;-79
2023/09/28 10:51:10;;;;;;;2.35;1.90;;;;;;;28.67;35.48;100439.12;5349308;26;33715;-79
2023/09/28 10:53:38;;;;;;;2.03;1.73;;;;;;;28.78;34.22;100436.09;5330948;26;32559;-80
2023/09/28 10:56:10;;;;;;;0.50;0.50;;;;;;;28.76;34.60;100429.97;5349481;26;33562;-79
2023/09/28 10:58:41;;;;;;;7.25;1.80;;;;;;;29.10;34.48;100434.41;5350317;26;33897;-79
2023/09/28 11:01:10;;;;;;;0.52;0.52;;;;;;;28.31;34.23;100433.13;5330125;26;32966;-79
2023/09/28 11:03:39;;;;;;;0.77;0.77;;;;;;;29.23;33.86;100434.72;5367385;26;34745;-80
2023/09/28 11:06:09;;;;;;;1.55;1.45;;;;;;;28.93;33.38;100427.25;5368542;26;34905;-79
2023/09/28 11:08:38;;;;;;;5.10;1.52;;;;;;;29.22;32.68;100422.16;5349381;26;33971;-79
2023/09/28 11:11:06;;;;;;;1.85;1.70;;;;;;;29.38;33.32;100415.81;5367747;26;33270;-79
2023/09/28 11:13:34;;;;;;;2.28;1.98;;;;;;;29.62;32.62;100412.22;5367638;26;33908;-79
2023/09/28 11:16:02;;;;;;;2.45;2.22;;;;;;;29.96;32.09;100402.87;5330585;26;33755;-79
2023/09/28 11:18:30;;;;;;;0.77;0.70;;;;;;;29.62;33.79;100404.06;5367093;26;33274;-80
2023/09/28 11:21:03;;;;;;;0.73;0.62;;;;;;;29.88;31.66;100408.38;5387736;26;33607;-79
2023/09/28 11:23:31;;;;;;;3.50;2.45;;;;;;;29.53;31.91;100405.06;5367871;26;34962;-80
2023/09/28 11:25:59;;;;;;;1.62;1.48;;;;;;;29.97;31.38;100396.44;5367965;26;34011;-80
2023/09/28 11:28:27;;;;;;;2.17;1.98;;;;;;;29.80;32.74;100392.94;5367716;26;34265;-80
2023/09/28 11:31:11;;;;;;;14.68;3.65;;;;;;;29.84;33.28;100395.12;5349029;26;33273;-79
2023/09/28 11:33:42;;;;;;;2.53;1.08;;;;;;;30.35;30.78;100401.00;5349369;26;33538;-79
2023/09/28 11:36:18;;;;;;;0.95;0.85;;;;;;;30.31;31.98;100399.66;5349230;26;32873;-79
2023/09/28 11:38:47;;;;;;;1.25;1.15;;;;;;;30.19;28.11;100398.34;5367643;26;34884;-79
2023/09/28 11:41:16;;;;;;;3.30;0.95;;;;;;;30.86;28.43;100386.84;5349428;26;33777;-79